createdAt,value
2022-09-26T00:01:37.723Z,98173.00
2022-09-26T00:04:13.705Z,98171.81
2022-09-26T00:06:41.518Z,98177.09
2022-09-26T00:09:09.077Z,98166.78
2022-09-26T00:11:36.631Z,98170.59
2022-09-26T00:14:13.483Z,98177.09
2022-09-26T00:16:42.320Z,98183.22
2022-09-26T00:19:10.057Z,98167.88
2022-09-26T00:21:38.327Z,98155.72
2022-09-26T00:24:06.209Z,98156.09
2022-09-26T00:26:36.105Z,98155.94
2022-09-26T00:29:09.248Z,98155.09
2022-09-26T00:31:41.214Z,98150.09
2022-09-26T00:34:12.834Z,98145.06
2022-09-26T00:36:40.641Z,98145.56
2022-09-26T00:39:11.169Z,98147.41
2022-09-26T00:41:39.088Z,98153.63
2022-09-26T00:44:37.491Z,98140.38
2022-09-26T00:47:21.959Z,98124.88
2022-09-26T00:49:55.920Z,98130.84
2022-09-26T00:52:32.499Z,98125.97
2022-09-26T00:55:04.854Z,98121.88
2022-09-26T00:57:45.376Z,98123.28
2022-09-26T01:00:17.681Z,98122.63
2022-09-26T01:02:48.543Z,98116.53
2022-09-26T01:05:20.372Z,98119.56
2022-09-26T01:07:52.266Z,98097.69
2022-09-26T01:10:19.986Z,98099.22
2022-09-26T01:12:47.677Z,98100.75
2022-09-26T01:15:15.237Z,98106.25
2022-09-26T01:17:45.577Z,98106.25
2022-09-26T01:20:49.990Z,98102.09
2022-09-26T01:23:32.419Z,98099.75
2022-09-26T01:26:26.527Z,98094.75
2022-09-26T01:29:15.544Z,98098.50
2022-09-26T01:32:27.534Z,98087.38
2022-09-26T01:35:16.057Z,98089.81
2022-09-26T01:38:11.599Z,98083.44
2022-09-26T01:41:05.297Z,98097.16
2022-09-26T01:43:45.793Z,98085.38
2022-09-26T01:46:18.894Z,98084.50
2022-09-26T01:48:58.838Z,98089.69
2022-09-26T01:52:05.793Z,98083.03
2022-09-26T01:54:54.813Z,98081.66
2022-09-26T01:57:31.749Z,98071.91
2022-09-26T02:00:06.812Z,98062.88
2022-09-26T02:02:49.214Z,98068.84
2022-09-26T02:05:35.145Z,98064.38
2022-09-26T02:08:32.868Z,98078.00
2022-09-26T02:11:17.285Z,98069.44
2022-09-26T02:14:16.759Z,98065.72
2022-09-26T02:16:51.158Z,98059.88
2022-09-26T02:19:27.797Z,98065.94
2022-09-26T02:21:58.737Z,98068.38
2022-09-26T02:24:27.321Z,98070.31
2022-09-26T02:26:55.123Z,98066.75
2022-09-26T02:29:23.287Z,98056.31
2022-09-26T02:32:04.103Z,98062.75
2022-09-26T02:34:31.932Z,98056.69
2022-09-26T02:37:01.254Z,98055.09
2022-09-26T02:39:33.842Z,98051.84
2022-09-26T02:42:36.979Z,98054.34
2022-09-26T02:45:36.184Z,98049.53
2022-09-26T02:48:48.207Z,98056.84
2022-09-26T02:51:30.719Z,98036.53
2022-09-26T02:54:29.300Z,98019.25
2022-09-26T02:57:16.731Z,98020.66
2022-09-26T03:00:03.243Z,98029.28
2022-09-26T03:02:41.009Z,98032.03
2022-09-26T03:05:20.600Z,98028.94
2022-09-26T03:08:05.876Z,98028.38
2022-09-26T03:10:36.705Z,98032.03
2022-09-26T03:13:13.266Z,98020.50
2022-09-26T03:15:45.594Z,98019.94
2022-09-26T03:18:20.371Z,98021.41
2022-09-26T03:20:48.850Z,98014.63
2022-09-26T03:23:17.263Z,98006.47
2022-09-26T03:25:45.479Z,98017.56
2022-09-26T03:28:16.563Z,98024.09
2022-09-26T03:30:44.401Z,98023.88
2022-09-26T03:33:32.247Z,98019.28
2022-09-26T03:36:00.516Z,98033.63
2022-09-26T03:38:28.172Z,98025.94
2022-09-26T03:41:06.086Z,98019.75
2022-09-26T03:43:52.335Z,98009.63
2022-09-26T03:46:19.955Z,97995.97
2022-09-26T03:48:47.775Z,97985.44
2022-09-26T03:51:15.345Z,97982.38
2022-09-26T03:53:47.204Z,97983.31
2022-09-26T03:56:19.771Z,97981.72
2022-09-26T03:58:49.156Z,97996.81
2022-09-26T04:01:22.546Z,97996.13
2022-09-26T04:03:51.437Z,98011.16
2022-09-26T04:06:21.066Z,97997.56
2022-09-26T04:08:52.980Z,97997.88
2022-09-26T04:11:24.539Z,97999.38
2022-09-26T04:13:54.130Z,97996.94
2022-09-26T04:16:25.548Z,97990.84
2022-09-26T04:18:59.357Z,97995.84
2022-09-26T04:21:28.596Z,97992.19
2022-09-26T04:23:57.106Z,97988.25
2022-09-26T04:26:24.949Z,97988.50
2022-09-26T04:28:56.921Z,97991.81
2022-09-26T04:31:37.802Z,97984.38
2022-09-26T04:34:12.089Z,97984.16
2022-09-26T04:36:40.145Z,97975.56
2022-09-26T04:39:07.754Z,97971.38
2022-09-26T04:41:35.814Z,97974.47
2022-09-26T04:44:03.658Z,97969.13
2022-09-26T04:46:32.565Z,97971.53
2022-09-26T04:49:02.296Z,97968.09
2022-09-26T04:51:32.616Z,97976.75
2022-09-26T04:54:00.378Z,97976.44
2022-09-26T04:56:30.099Z,97980.44
2022-09-26T04:58:59.403Z,97987.66
2022-09-26T05:01:34.488Z,97991.38
2022-09-26T05:04:13.485Z,97985.88
2022-09-26T05:06:42.286Z,97977.16
2022-09-26T05:09:17.341Z,97976.81
2022-09-26T05:11:59.784Z,97978.75
2022-09-26T05:14:28.067Z,97985.53
2022-09-26T05:16:55.515Z,97981.63
2022-09-26T05:19:23.139Z,97972.22
2022-09-26T05:22:09.115Z,97957.75
2022-09-26T05:24:55.180Z,97969.19
2022-09-26T05:27:24.252Z,97957.97
2022-09-26T05:29:55.685Z,97965.56
2022-09-26T05:32:23.734Z,97967.50
2022-09-26T05:34:52.186Z,97966.59
2022-09-26T05:37:22.153Z,97971.16
2022-09-26T05:40:08.851Z,97977.34
2022-09-26T05:42:41.047Z,97982.41
2022-09-26T05:45:09.389Z,97995.38
2022-09-26T05:47:37.284Z,97984.31
2022-09-26T05:50:10.253Z,97986.75
2022-09-26T05:52:39.604Z,97978.25
2022-09-26T05:55:11.842Z,97972.84
2022-09-26T05:57:59.207Z,97974.50
2022-09-26T06:00:38.650Z,97980.31
2022-09-26T06:03:06.510Z,97977.94
2022-09-26T06:05:46.984Z,97964.94
2022-09-26T06:08:17.344Z,97970.19
2022-09-26T06:10:49.338Z,97963.06
2022-09-26T06:13:16.799Z,97950.31
2022-09-26T06:15:50.002Z,97935.00
2022-09-26T06:18:17.882Z,97931.94
2022-09-26T06:20:45.427Z,97943.84
2022-09-26T06:23:13.275Z,97951.25
2022-09-26T06:25:43.212Z,97942.03
2022-09-26T06:28:11.056Z,97926.00
2022-09-26T06:30:39.567Z,97937.47
2022-09-26T06:33:19.708Z,97941.94
2022-09-26T06:36:10.424Z,97945.69
2022-09-26T06:38:38.910Z,97948.34
2022-09-26T06:41:16.528Z,97939.53
2022-09-26T06:43:45.893Z,97935.06
2022-09-26T06:46:33.278Z,97926.34
2022-09-26T06:49:14.900Z,97913.91
2022-09-26T06:51:55.301Z,97922.00
2022-09-26T06:54:22.869Z,97934.09
2022-09-26T06:56:50.315Z,97932.03
2022-09-26T06:59:17.863Z,97930.09
2022-09-26T07:01:53.160Z,97917.28
2022-09-26T07:04:39.333Z,97918.66
2022-09-26T07:07:16.494Z,97930.09
2022-09-26T07:09:43.987Z,97927.59
2022-09-26T07:12:30.948Z,97922.00
2022-09-26T07:15:00.352Z,97920.16
2022-09-26T07:17:30.486Z,97929.53
2022-09-26T07:20:36.126Z,97918.78
2022-09-26T07:23:16.921Z,97929.00
2022-09-26T07:25:46.859Z,97928.00
2022-09-26T07:28:14.778Z,97920.00
2022-09-26T07:30:48.197Z,97922.91
2022-09-26T07:33:27.658Z,97917.00
2022-09-26T07:36:01.903Z,97917.41
2022-09-26T07:38:32.060Z,97915.72
2022-09-26T07:41:01.199Z,97918.94
2022-09-26T07:44:04.539Z,97925.09
2022-09-26T07:46:38.852Z,97924.19
2022-09-26T07:49:24.911Z,97914.97
2022-09-26T07:52:10.040Z,97912.25
2022-09-26T07:54:54.343Z,97920.25
2022-09-26T07:57:40.334Z,97922.38
2022-09-26T08:00:30.335Z,97915.34
2022-09-26T08:03:08.641Z,97920.44
2022-09-26T08:05:38.470Z,97911.06
2022-09-26T08:08:06.023Z,97907.88
2022-09-26T08:10:52.179Z,97903.81
2022-09-26T08:13:38.156Z,97903.53
2022-09-26T08:16:29.456Z,97904.41
2022-09-26T08:19:01.680Z,97905.78
2022-09-26T08:21:29.953Z,97902.31
2022-09-26T08:23:59.171Z,97893.75
2022-09-26T08:26:32.287Z,97889.19
2022-09-26T08:29:09.417Z,97891.84
2022-09-26T08:31:38.831Z,97899.19
2022-09-26T08:34:08.158Z,97892.97
2022-09-26T08:36:37.095Z,97886.22
2022-09-26T08:39:17.460Z,97891.13
2022-09-26T08:42:24.017Z,97883.25
2022-09-26T08:46:00.450Z,97899.59
2022-09-26T08:48:35.268Z,97897.47
2022-09-26T08:51:29.011Z,97892.06
2022-09-26T08:54:18.128Z,97876.38
2022-09-26T08:57:02.944Z,97876.78
2022-09-26T08:59:42.055Z,97876.88
2022-09-26T09:02:43.446Z,97881.13
2022-09-26T09:05:32.954Z,97890.28
2022-09-26T09:08:08.003Z,97885.78
2022-09-26T09:11:13.752Z,97881.06
2022-09-26T09:14:28.565Z,97880.25
2022-09-26T09:17:32.099Z,97882.91
2022-09-26T09:20:50.214Z,97894.72
2022-09-26T09:24:07.555Z,97887.31
2022-09-26T09:30:20.774Z,97883.78
2022-09-26T09:33:22.262Z,97886.00
2022-09-26T09:36:19.972Z,97879.44
2022-09-26T09:39:28.056Z,97865.03
2022-09-26T09:42:36.242Z,97873.72
2022-09-26T09:45:13.460Z,97869.88
2022-09-26T09:47:41.074Z,97863.72
2022-09-26T09:50:28.786Z,97874.19
2022-09-26T09:56:08.804Z,97863.06
2022-09-26T09:58:49.505Z,97856.06
2022-09-26T10:01:41.530Z,97859.31
2022-09-26T10:04:52.815Z,97871.56
2022-09-26T10:07:20.424Z,97865.78
2022-09-26T10:10:21.045Z,97866.56
2022-09-26T10:13:11.163Z,97877.75
2022-09-26T10:16:15.251Z,97866.31
2022-09-26T10:19:08.679Z,97858.75
2022-09-26T10:21:48.590Z,97866.50
2022-09-26T10:24:40.845Z,97860.97
2022-09-26T10:27:22.176Z,97856.78
2022-09-26T10:30:21.338Z,97852.44
2022-09-26T10:32:56.849Z,97843.81
2022-09-26T10:35:53.040Z,97842.41
2022-09-26T10:38:27.276Z,97835.44
2022-09-26T10:41:25.171Z,97837.63
2022-09-26T10:43:57.565Z,97835.97
2022-09-26T10:46:46.555Z,97835.72
2022-09-26T10:49:54.778Z,97837.34
2022-09-26T10:52:34.592Z,97835.31
2022-09-26T10:55:15.146Z,97832.03
2022-09-26T10:57:53.879Z,97835.25
2022-09-26T11:00:37.661Z,97827.63
2022-09-26T11:03:16.716Z,97829.34
2022-09-26T11:06:03.019Z,97816.88
2022-09-26T11:08:37.299Z,97825.72
2022-09-26T11:11:39.121Z,97818.00
2022-09-26T11:14:09.812Z,97814.66
2022-09-26T11:16:44.010Z,97813.97
2022-09-26T11:19:39.040Z,97799.47
2022-09-26T11:22:22.217Z,97805.97
2022-09-26T11:25:31.244Z,97799.50
2022-09-26T11:28:12.583Z,97795.06
2022-09-26T11:31:14.428Z,97790.63
2022-09-26T11:33:47.252Z,97780.00
2022-09-26T11:37:31.094Z,97772.47
2022-09-26T11:40:22.136Z,97770.38
2022-09-26T11:43:21.131Z,97761.53
2022-09-26T11:46:41.050Z,97764.09
2022-09-26T11:49:35.784Z,97755.56
2022-09-26T11:52:56.994Z,97758.41
2022-09-26T11:55:48.885Z,97756.84
2022-09-26T11:58:28.243Z,97753.41
2022-09-26T12:01:19.842Z,97751.06
2022-09-26T12:04:11.894Z,97751.06
2022-09-26T12:06:56.123Z,97751.28
2022-09-26T12:09:23.659Z,97752.03
2022-09-26T12:12:41.879Z,97751.47
2022-09-26T12:15:55.946Z,97737.09
2022-09-26T12:18:46.447Z,97728.00
2022-09-26T12:22:19.559Z,97725.88
2022-09-26T12:25:19.884Z,97727.84
2022-09-26T12:28:19.962Z,97723.09
2022-09-26T12:31:19.363Z,97726.50
2022-09-26T12:34:02.402Z,97733.44
2022-09-26T12:37:23.342Z,97732.13
2022-09-26T12:40:10.311Z,97725.78
2022-09-26T12:43:04.812Z,97723.22
2022-09-26T12:46:09.641Z,97731.47
2022-09-26T12:49:25.652Z,97733.13
2022-09-26T12:52:12.751Z,97732.06
2022-09-26T12:55:06.284Z,97721.13
2022-09-26T12:58:05.947Z,97711.84
2022-09-26T13:00:54.258Z,97712.34
2022-09-26T13:04:05.261Z,97698.03
2022-09-26T13:07:18.960Z,97698.84
2022-09-26T13:10:06.066Z,97705.19
2022-09-26T13:13:11.089Z,97702.00
2022-09-26T13:15:52.942Z,97708.13
2022-09-26T13:18:33.164Z,97709.97
2022-09-26T13:21:12.172Z,97711.59
2022-09-26T13:23:53.830Z,97697.50
2022-09-26T13:26:31.572Z,97710.00
2022-09-26T13:29:21.979Z,97704.16
2022-09-26T13:32:17.378Z,97698.88
2022-09-26T13:34:51.377Z,97703.41
2022-09-26T13:37:57.844Z,97704.19
2022-09-26T13:41:01.927Z,97700.19
2022-09-26T13:43:47.931Z,97701.75
2022-09-26T13:46:40.379Z,97693.22
2022-09-26T13:50:16.044Z,97693.22
2022-09-26T13:53:06.753Z,97687.13
2022-09-26T13:55:35.987Z,97683.09
2022-09-26T13:58:21.436Z,97682.56
2022-09-26T14:00:53.088Z,97677.75
2022-09-26T14:03:20.539Z,97676.44
2022-09-26T14:05:52.091Z,97676.22
2022-09-26T14:08:43.961Z,97687.44
2022-09-26T14:11:42.499Z,97680.53
2022-09-26T14:14:19.016Z,97690.13
2022-09-26T14:16:53.110Z,97689.88
2022-09-26T14:19:37.343Z,97688.03
2022-09-26T14:22:20.761Z,97682.94
2022-09-26T14:24:49.992Z,97679.22
2022-09-26T14:27:36.332Z,97666.50
2022-09-26T14:30:30.489Z,97675.25
2022-09-26T14:33:09.608Z,97665.16
2022-09-26T14:35:40.280Z,97661.97
2022-09-26T14:38:20.176Z,97669.13
2022-09-26T14:40:59.021Z,97649.75
2022-09-26T14:43:31.233Z,97656.38
2022-09-26T14:46:05.508Z,97650.78
2022-09-26T14:48:42.490Z,97640.16
2022-09-26T14:51:15.398Z,97646.53
2022-09-26T14:53:48.713Z,97644.41
2022-09-26T14:56:25.535Z,97649.72
2022-09-26T14:59:13.378Z,97646.25
2022-09-26T15:01:43.355Z,97637.44
2022-09-26T15:04:18.814Z,97640.88
2022-09-26T15:06:56.503Z,97634.22
2022-09-26T15:09:45.227Z,97651.16
2022-09-26T15:12:39.842Z,97633.34
2022-09-26T15:15:48.353Z,97635.69
2022-09-26T15:18:28.088Z,97629.56
2022-09-26T15:21:05.393Z,97621.56
2022-09-26T15:23:44.666Z,97623.19
2022-09-26T15:26:16.975Z,97621.53
2022-09-26T15:28:49.418Z,97630.47
2022-09-26T15:31:47.213Z,97624.09
2022-09-26T15:34:28.889Z,97620.38
2022-09-26T15:36:59.008Z,97620.38
2022-09-26T15:39:32.542Z,97625.13
2022-09-26T15:42:44.953Z,97623.75
2022-09-26T15:45:27.786Z,97611.06
2022-09-26T15:47:58.823Z,97622.19
2022-09-26T15:50:55.263Z,97612.38
2022-09-26T15:53:34.495Z,97612.88
2022-09-26T15:56:15.678Z,97609.16
2022-09-26T15:58:55.448Z,97609.94
2022-09-26T16:01:28.165Z,97610.19
2022-09-26T16:04:19.058Z,97614.44
2022-09-26T16:06:57.098Z,97624.50
2022-09-26T16:09:33.486Z,97615.72
2022-09-26T16:12:16.524Z,97608.78
2022-09-26T16:15:03.879Z,97602.50
2022-09-26T16:17:49.130Z,97606.75
2022-09-26T16:20:16.866Z,97622.06
2022-09-26T16:22:53.680Z,97629.50
2022-09-26T16:25:40.007Z,97621.03
2022-09-26T16:28:10.416Z,97620.44
2022-09-26T16:31:03.598Z,97622.00
2022-09-26T16:33:33.119Z,97623.81
2022-09-26T16:36:17.602Z,97619.22
2022-09-26T16:38:53.351Z,97617.03
2022-09-26T16:42:02.275Z,97620.66
2022-09-26T16:44:42.969Z,97623.97
2022-09-26T16:47:42.625Z,97622.34
2022-09-26T16:50:33.473Z,97630.28
2022-09-26T16:53:06.403Z,97631.81
2022-09-26T16:55:36.541Z,97634.13
2022-09-26T16:58:06.408Z,97647.34
2022-09-26T17:00:54.119Z,97639.19
2022-09-26T17:03:31.279Z,97629.41
2022-09-26T17:06:00.344Z,97638.34
2022-09-26T17:08:28.712Z,97642.31
2022-09-26T17:11:02.419Z,97649.13
2022-09-26T17:13:33.880Z,97656.00
2022-09-26T17:16:02.472Z,97659.69
2022-09-26T17:18:32.972Z,97668.94
2022-09-26T17:21:01.473Z,97660.44
2022-09-26T17:23:41.548Z,97663.13
2022-09-26T17:26:21.786Z,97654.91
2022-09-26T17:28:52.871Z,97659.75
2022-09-26T17:31:20.715Z,97663.94
2022-09-26T17:33:52.371Z,97666.09
2022-09-26T17:36:24.495Z,97675.63
2022-09-26T17:38:52.338Z,97682.44
2022-09-26T17:41:19.875Z,97681.31
2022-09-26T17:43:47.423Z,97682.91
2022-09-26T17:46:16.568Z,97682.66
2022-09-26T17:48:44.732Z,97693.44
2022-09-26T17:51:14.491Z,97694.97
2022-09-26T17:53:50.552Z,97689.41
2022-09-26T17:56:20.088Z,97703.75
2022-09-26T17:58:49.324Z,97709.75
2022-09-26T18:01:29.788Z,97714.50
2022-09-26T18:04:02.530Z,97721.88
2022-09-26T18:06:33.084Z,97717.44
2022-09-26T18:09:09.454Z,97725.78
2022-09-26T18:11:37.962Z,97728.28
2022-09-26T18:14:08.033Z,97735.81
2022-09-26T18:16:35.626Z,97742.63
2022-09-26T18:19:07.490Z,97739.44
2022-09-26T18:21:36.261Z,97734.81
2022-09-26T18:24:06.961Z,97733.38
2022-09-26T18:26:47.488Z,97734.84
2022-09-26T18:29:25.847Z,97735.16
2022-09-26T18:31:53.606Z,97740.66
2022-09-26T18:34:21.115Z,97735.72
2022-09-26T18:36:50.024Z,97737.47
2022-09-26T18:39:17.597Z,97728.25
2022-09-26T18:41:45.932Z,97729.63
2022-09-26T18:44:17.541Z,97725.56
2022-09-26T18:46:47.167Z,97734.97
2022-09-26T18:49:15.433Z,97733.66
2022-09-26T18:51:43.522Z,97730.13
2022-09-26T18:54:16.051Z,97732.41
2022-09-26T18:57:01.911Z,97730.66
2022-09-26T18:59:32.139Z,97728.56
2022-09-26T19:02:01.866Z,97726.38
2022-09-26T19:04:33.424Z,97734.66
2022-09-26T19:07:06.043Z,97734.47
2022-09-26T19:09:36.239Z,97733.41
2022-09-26T19:12:04.179Z,97734.25
2022-09-26T19:14:32.269Z,97735.59
2022-09-26T19:16:59.863Z,97729.38
2022-09-26T19:19:32.495Z,97724.19
2022-09-26T19:22:08.125Z,97723.91
2022-09-26T19:24:51.400Z,97716.75
2022-09-26T19:27:26.744Z,97721.72
2022-09-26T19:29:59.094Z,97705.59
2022-09-26T19:32:44.528Z,97711.31
2022-09-26T19:35:31.903Z,97711.75
2022-09-26T19:38:01.951Z,97716.34
2022-09-26T19:40:29.673Z,97720.31
2022-09-26T19:42:58.052Z,97721.31
2022-09-26T19:45:26.683Z,97728.03
2022-09-26T19:47:55.877Z,97719.13
2022-09-26T19:50:25.883Z,97699.38
2022-09-26T19:52:56.534Z,97700.84
2022-09-26T19:55:30.654Z,97700.38
2022-09-26T19:58:07.805Z,97704.06
2022-09-26T20:00:41.270Z,97691.25
2022-09-26T20:03:29.585Z,97684.28
2022-09-26T20:05:57.666Z,97694.72
2022-09-26T20:08:27.215Z,97684.97
2022-09-26T20:10:56.470Z,97685.34
2022-09-26T20:13:23.967Z,97693.00
2022-09-26T20:15:51.700Z,97700.50
2022-09-26T20:18:24.042Z,97701.19
2022-09-26T20:20:55.709Z,97702.81
2022-09-26T20:23:26.832Z,97711.38
2022-09-26T20:25:55.891Z,97710.81
2022-09-26T20:28:23.397Z,97712.19
2022-09-26T20:30:54.438Z,97704.63
2022-09-26T20:33:24.675Z,97718.34
2022-09-26T20:36:05.058Z,97709.50
2022-09-26T20:38:49.855Z,97708.72
2022-09-26T20:41:40.725Z,97718.69
2022-09-26T20:44:15.582Z,97717.19
2022-09-26T20:46:58.929Z,97712.94
2022-09-26T20:49:33.143Z,97706.66
2022-09-26T20:52:02.446Z,97716.06
2022-09-26T20:54:32.609Z,97709.84
2022-09-26T20:57:01.378Z,97708.16
2022-09-26T20:59:29.263Z,97711.72
2022-09-26T21:01:58.654Z,97712.53
2022-09-26T21:04:32.401Z,97708.25
2022-09-26T21:06:59.939Z,97712.47
2022-09-26T21:09:27.411Z,97712.81
2022-09-26T21:11:54.896Z,97714.88
2022-09-26T21:14:22.331Z,97723.59
2022-09-26T21:16:52.377Z,97716.47
2022-09-26T21:19:24.009Z,97714.09
2022-09-26T21:22:02.737Z,97715.97
2022-09-26T21:24:43.203Z,97704.88
2022-09-26T21:27:12.510Z,97710.00
2022-09-26T21:29:41.297Z,97712.53
2022-09-26T21:32:14.807Z,97697.84
2022-09-26T21:34:44.030Z,97700.69
2022-09-26T21:37:11.780Z,97694.88
2022-09-26T21:39:40.059Z,97690.66
2022-09-26T21:42:07.836Z,97691.25
2022-09-26T21:44:56.654Z,97688.47
2022-09-26T21:47:24.625Z,97678.06
2022-09-26T21:49:52.564Z,97692.41
2022-09-26T21:52:36.941Z,97697.72
2022-09-26T21:55:06.995Z,97681.81
2022-09-26T21:57:42.297Z,97681.81
2022-09-26T22:00:11.972Z,97676.44
2022-09-26T22:02:42.299Z,97667.94
2022-09-26T22:05:12.038Z,97663.38
2022-09-26T22:07:39.666Z,97665.31
2022-09-26T22:10:07.916Z,97662.59
2022-09-26T22:12:35.488Z,97661.00
2022-09-26T22:15:03.318Z,97659.84
2022-09-26T22:17:30.817Z,97662.03
2022-09-26T22:19:58.287Z,97653.00
2022-09-26T22:22:25.954Z,97644.28
2022-09-26T22:24:54.091Z,97641.09
2022-09-26T22:27:21.667Z,97638.94
2022-09-26T22:29:49.178Z,97634.69
2022-09-26T22:32:16.662Z,97633.34
2022-09-26T22:34:44.187Z,97637.31
2022-09-26T22:37:11.866Z,97630.00
2022-09-26T22:39:39.344Z,97625.06
2022-09-26T22:42:07.549Z,97625.88
2022-09-26T22:44:35.751Z,97627.25
2022-09-26T22:47:03.131Z,97624.84
2022-09-26T22:49:30.499Z,97620.50
2022-09-26T22:51:58.235Z,97625.75
2022-09-26T22:54:26.860Z,97619.47
2022-09-26T22:56:54.420Z,97620.59
2022-09-26T22:59:21.961Z,97624.38
2022-09-26T23:01:51.667Z,97619.44
2022-09-26T23:04:19.314Z,97615.56
2022-09-26T23:06:46.817Z,97609.75
2022-09-26T23:09:14.401Z,97604.94
2022-09-26T23:11:42.262Z,97605.97
2022-09-26T23:14:09.823Z,97604.59
2022-09-26T23:16:38.479Z,97603.69
2022-09-26T23:19:06.170Z,97607.53
2022-09-26T23:21:33.664Z,97605.75
2022-09-26T23:24:01.555Z,97599.44
2022-09-26T23:26:31.982Z,97601.16
2022-09-26T23:29:00.418Z,97605.50
2022-09-26T23:31:29.068Z,97599.41
2022-09-26T23:33:57.558Z,97586.50
2022-09-26T23:36:25.338Z,97589.63
2022-09-26T23:38:53.500Z,97578.63
2022-09-26T23:41:20.837Z,97580.56
2022-09-26T23:43:48.402Z,97584.13
2022-09-26T23:46:16.378Z,97588.94
2022-09-26T23:48:44.231Z,97581.72
2022-09-26T23:51:11.846Z,97579.53
2022-09-26T23:53:39.303Z,97565.94
2022-09-26T23:56:10.842Z,97560.31
2022-09-26T23:58:38.698Z,97549.34
